createdAt,value
2022-10-29T00:01:16.192Z,24.83
2022-10-29T00:03:44.567Z,22.25
2022-10-29T00:06:12.986Z,21.52
2022-10-29T00:08:42.405Z,22.75
2022-10-29T00:11:21.254Z,35.53
2022-10-29T00:13:55.135Z,37.45
2022-10-29T00:16:27.726Z,29.98
2022-10-29T00:18:57.153Z,27.80
2022-10-29T00:21:26.210Z,28.58
2022-10-29T00:23:54.495Z,25.73
2022-10-29T00:26:24.013Z,29.40
2022-10-29T00:28:53.895Z,29.20
2022-10-29T00:31:24.438Z,28.88
2022-10-29T00:36:27.322Z,25.38
2022-10-29T00:38:57.284Z,40.95
2022-10-29T00:41:30.436Z,23.35
2022-10-29T00:44:18.025Z,30.77
2022-10-29T00:47:00.888Z,25.08
2022-10-29T00:49:32.014Z,38.35
2022-10-29T00:52:03.372Z,46.75
2022-10-29T00:54:35.999Z,31.73
2022-10-29T00:57:11.734Z,43.92
2022-10-29T00:59:43.580Z,23.10
2022-10-29T01:02:12.167Z,17.73
2022-10-29T01:04:41.907Z,20.20
2022-10-29T01:07:13.296Z,27.15
2022-10-29T01:09:42.469Z,36.20
2022-10-29T01:12:32.234Z,33.10
2022-10-29T01:15:10.340Z,29.60
2022-10-29T01:17:51.663Z,27.50
2022-10-29T01:23:47.365Z,24.35
2022-10-29T01:26:27.687Z,34.08
2022-10-29T01:29:23.452Z,32.85
2022-10-29T01:32:12.464Z,39.53
2022-10-29T01:34:52.283Z,41.97
2022-10-29T01:37:28.840Z,47.13
2022-10-29T01:40:03.279Z,41.92
2022-10-29T01:42:39.475Z,44.90
2022-10-29T01:45:21.743Z,30.05
2022-10-29T01:47:56.808Z,35.67
2022-10-29T01:50:26.513Z,33.38
2022-10-29T01:52:56.122Z,40.85
2022-10-29T01:55:30.489Z,52.78
2022-10-29T01:57:59.644Z,67.70
2022-10-29T02:00:51.014Z,27.10
2022-10-29T02:03:19.468Z,47.13
2022-10-29T02:06:09.843Z,44.83
2022-10-29T02:08:55.364Z,27.30
2022-10-29T02:11:45.392Z,62.10
2022-10-29T02:14:40.710Z,26.45
2022-10-29T02:17:09.115Z,27.23
2022-10-29T02:19:37.799Z,107.15
2022-10-29T02:22:06.402Z,133.57
2022-10-29T02:24:36.036Z,83.78
2022-10-29T02:27:05.442Z,117.07
2022-10-29T02:29:40.620Z,100.88
2022-10-29T02:32:09.121Z,78.30
2022-10-29T02:34:37.473Z,71.75
2022-10-29T02:37:05.860Z,54.17
2022-10-29T02:39:36.907Z,68.83
2022-10-29T02:42:08.289Z,159.77
2022-10-29T02:44:36.639Z,152.25
2022-10-29T02:47:05.066Z,70.15
2022-10-29T02:49:33.571Z,163.65
2022-10-29T02:52:02.074Z,90.63
2022-10-29T02:54:30.351Z,26.42
2022-10-29T02:56:58.673Z,153.88
2022-10-29T02:59:27.016Z,111.20
2022-10-29T03:01:56.916Z,118.50
2022-10-29T03:04:27.331Z,97.00
2022-10-29T03:06:56.198Z,108.88
2022-10-29T03:09:24.624Z,106.30
2022-10-29T03:11:53.979Z,93.38
2022-10-29T03:14:22.546Z,110.82
2022-10-29T03:16:51.178Z,50.63
2022-10-29T03:19:19.507Z,119.32
2022-10-29T03:21:47.916Z,86.35
2022-10-29T03:24:16.426Z,72.03
2022-10-29T03:26:44.867Z,125.75
2022-10-29T03:29:13.382Z,72.10
2022-10-29T03:31:42.469Z,89.93
2022-10-29T03:34:10.900Z,56.78
2022-10-29T03:36:39.405Z,66.45
2022-10-29T03:39:07.982Z,94.63
2022-10-29T03:41:36.444Z,78.50
2022-10-29T03:44:04.906Z,51.35
2022-10-29T03:46:34.720Z,34.67
2022-10-29T03:49:03.025Z,73.60
2022-10-29T03:51:31.351Z,33.70
2022-10-29T03:53:59.639Z,60.60
2022-10-29T03:56:28.733Z,53.00
2022-10-29T03:58:57.734Z,31.10
2022-10-29T04:01:29.514Z,57.30
2022-10-29T04:03:58.009Z,33.85
2022-10-29T04:06:27.374Z,29.02
2022-10-29T04:08:56.178Z,45.92
2022-10-29T04:11:26.001Z,55.55
2022-10-29T04:13:54.430Z,22.85
2022-10-29T04:16:22.829Z,38.35
2022-10-29T04:18:51.196Z,48.33
2022-10-29T04:29:45.471Z,39.40
2022-10-29T04:32:14.484Z,25.98
2022-10-29T04:34:42.768Z,31.08
2022-10-29T04:37:11.780Z,37.53
2022-10-29T04:39:40.501Z,24.23
2022-10-29T04:42:09.376Z,63.63
2022-10-29T04:44:37.892Z,50.25
2022-10-29T04:47:06.205Z,26.48
2022-10-29T04:49:35.284Z,32.45
2022-10-29T04:52:04.966Z,23.73
2022-10-29T04:54:33.237Z,35.60
2022-10-29T04:57:01.563Z,35.97
2022-10-29T04:59:29.892Z,51.03
2022-10-29T05:01:58.509Z,49.47
2022-10-29T05:04:29.855Z,48.78
2022-10-29T05:06:58.625Z,48.42
2022-10-29T05:09:29.038Z,47.00
2022-10-29T05:11:59.842Z,78.15
2022-10-29T05:16:56.260Z,71.03
2022-10-29T05:19:24.617Z,60.28
2022-10-29T05:21:53.070Z,61.15
2022-10-29T05:24:21.534Z,43.72
2022-10-29T05:26:50.429Z,71.57
2022-10-29T05:29:18.729Z,60.80
2022-10-29T05:31:46.999Z,34.38
2022-10-29T05:34:15.477Z,21.70
2022-10-29T05:36:44.535Z,62.75
2022-10-29T05:39:12.809Z,51.38
2022-10-29T05:41:41.856Z,70.68
2022-10-29T05:44:10.631Z,50.60
2022-10-29T05:46:39.347Z,17.23
2022-10-29T05:49:08.829Z,24.63
2022-10-29T05:51:37.652Z,49.35
2022-10-29T05:54:06.274Z,32.15
2022-10-29T05:56:34.694Z,21.25
2022-10-29T05:59:03.022Z,57.75
2022-10-29T06:01:31.574Z,24.20
2022-10-29T06:04:02.385Z,30.58
2022-10-29T06:09:00.269Z,39.67
2022-10-29T06:11:28.611Z,23.65
2022-10-29T06:13:57.204Z,58.03
2022-10-29T06:16:28.606Z,23.88
2022-10-29T06:18:57.147Z,46.42
2022-10-29T06:21:25.499Z,34.42
2022-10-29T06:23:54.212Z,22.25
2022-10-29T06:26:22.912Z,24.83
2022-10-29T06:28:51.277Z,34.78
2022-10-29T06:31:19.585Z,72.90
2022-10-29T06:33:48.134Z,43.55
2022-10-29T06:36:16.582Z,62.95
2022-10-29T06:38:45.029Z,40.60
2022-10-29T06:41:14.246Z,50.35
2022-10-29T06:43:43.135Z,39.15
2022-10-29T06:46:11.441Z,54.58
2022-10-29T06:48:39.748Z,76.38
2022-10-29T06:51:08.218Z,44.88
2022-10-29T06:53:36.620Z,65.40
2022-10-29T06:56:05.146Z,51.17
2022-10-29T06:58:34.010Z,60.28
2022-10-29T07:01:02.535Z,45.85
2022-10-29T07:03:34.786Z,46.45
2022-10-29T07:06:03.836Z,57.83
2022-10-29T07:08:33.347Z,60.20
2022-10-29T07:11:03.129Z,60.83
2022-10-29T07:13:32.967Z,39.03
2022-10-29T07:16:07.740Z,54.30
2022-10-29T07:18:37.496Z,36.65
2022-10-29T07:21:06.184Z,17.55
2022-10-29T07:23:34.468Z,37.67
2022-10-29T07:26:04.457Z,39.45
2022-10-29T07:28:33.162Z,45.25
2022-10-29T07:31:01.846Z,48.58
2022-10-29T07:33:31.400Z,55.22
2022-10-29T07:36:00.561Z,35.08
2022-10-29T07:38:29.126Z,56.05
2022-10-29T07:40:57.680Z,36.85
2022-10-29T07:43:26.064Z,62.38
2022-10-29T07:45:54.446Z,54.70
2022-10-29T07:48:22.838Z,31.65
2022-10-29T07:50:51.671Z,45.42
2022-10-29T07:53:23.271Z,44.08
2022-10-29T07:55:55.983Z,45.40
2022-10-29T07:58:25.242Z,38.33
2022-10-29T08:00:54.015Z,33.08
2022-10-29T08:03:22.584Z,38.22
2022-10-29T08:05:56.346Z,55.42
2022-10-29T08:08:25.573Z,37.70
2022-10-29T08:10:59.607Z,75.40
2022-10-29T08:13:29.137Z,35.92
2022-10-29T08:15:57.763Z,38.15
2022-10-29T08:18:26.466Z,38.65
2022-10-29T08:20:55.000Z,48.47
2022-10-29T08:23:23.849Z,31.80
2022-10-29T08:25:54.096Z,61.90
2022-10-29T08:28:25.645Z,29.27
2022-10-29T08:30:55.003Z,88.82
2022-10-29T08:33:23.308Z,100.18
2022-10-29T08:35:52.708Z,63.30
2022-10-29T08:38:23.626Z,51.63
2022-10-29T08:41:06.585Z,53.05
2022-10-29T08:44:11.440Z,68.13
2022-10-29T08:46:47.668Z,58.17
2022-10-29T08:49:23.605Z,70.82
2022-10-29T08:51:58.257Z,59.55
2022-10-29T08:54:32.052Z,43.83
2022-10-29T08:57:18.013Z,45.97
2022-10-29T09:00:02.471Z,51.60
2022-10-29T09:02:31.076Z,77.68
2022-10-29T09:05:01.784Z,50.60
2022-10-29T09:10:21.934Z,44.78
2022-10-29T09:13:00.371Z,71.60
2022-10-29T09:15:57.748Z,54.35
2022-10-29T09:19:00.338Z,51.65
2022-10-29T09:21:39.822Z,74.22
2022-10-29T09:24:40.326Z,71.22
2022-10-29T09:27:22.672Z,71.50
2022-10-29T09:30:05.752Z,68.65
2022-10-29T09:32:46.989Z,66.00
2022-10-29T09:35:18.714Z,73.13
2022-10-29T09:37:57.074Z,51.97
2022-10-29T09:40:41.219Z,77.28
2022-10-29T09:43:29.119Z,78.93
2022-10-29T09:46:31.160Z,79.63
2022-10-29T09:49:10.766Z,65.45
2022-10-29T09:51:48.284Z,75.17
2022-10-29T09:54:18.572Z,57.58
2022-10-29T09:56:53.362Z,65.37
2022-10-29T09:59:42.253Z,61.83
2022-10-29T10:02:28.185Z,61.03
2022-10-29T10:05:03.908Z,66.38
2022-10-29T10:07:36.322Z,63.80
2022-10-29T10:10:06.832Z,61.25
2022-10-29T10:12:38.087Z,57.50
2022-10-29T10:15:22.622Z,64.88
2022-10-29T10:18:03.264Z,65.57
2022-10-29T10:23:54.771Z,53.10
2022-10-29T10:26:44.257Z,53.85
2022-10-29T10:29:14.309Z,48.58
2022-10-29T10:32:04.202Z,61.88
2022-10-29T10:34:32.511Z,50.13
2022-10-29T10:37:13.755Z,62.70
2022-10-29T10:39:46.559Z,56.65
2022-10-29T10:42:28.851Z,54.85
2022-10-29T10:45:03.673Z,61.80
2022-10-29T10:47:36.600Z,53.30
2022-10-29T10:50:22.859Z,46.40
2022-10-29T10:52:55.573Z,49.00
2022-10-29T10:55:38.953Z,44.95
2022-10-29T10:58:11.453Z,53.92
2022-10-29T11:00:55.432Z,45.80
2022-10-29T11:03:56.324Z,46.15
2022-10-29T11:06:33.890Z,42.58
2022-10-29T11:09:26.863Z,44.88
2022-10-29T11:12:02.504Z,45.22
2022-10-29T11:14:36.877Z,47.67
2022-10-29T11:17:25.439Z,36.58
2022-10-29T11:19:58.840Z,44.03
2022-10-29T11:23:01.976Z,37.40
2022-10-29T11:25:51.267Z,37.38
2022-10-29T11:28:39.789Z,37.15
2022-10-29T11:31:14.327Z,42.25
2022-10-29T11:33:53.032Z,37.00
2022-10-29T11:36:31.175Z,30.70
2022-10-29T11:39:08.509Z,35.10
2022-10-29T11:41:57.798Z,37.45
2022-10-29T11:44:27.947Z,34.53
2022-10-29T11:47:21.248Z,34.35
2022-10-29T11:50:17.479Z,47.65
2022-10-29T11:53:19.303Z,36.95
2022-10-29T11:56:05.284Z,40.20
2022-10-29T11:58:40.781Z,35.72
2022-10-29T12:01:35.363Z,41.40
2022-10-29T12:04:24.236Z,24.52
2022-10-29T12:07:05.142Z,22.83
2022-10-29T12:09:42.744Z,26.40
2022-10-29T12:12:19.866Z,27.25
2022-10-29T12:15:01.738Z,21.65
2022-10-29T12:17:59.210Z,26.67
2022-10-29T12:20:31.326Z,26.80
2022-10-29T12:23:15.074Z,26.33
2022-10-29T12:26:16.828Z,25.70
2022-10-29T12:28:59.961Z,22.95
2022-10-29T12:31:28.447Z,22.25
2022-10-29T12:34:02.714Z,23.00
2022-10-29T12:37:01.122Z,21.33
2022-10-29T12:39:34.679Z,19.33
2022-10-29T12:42:17.594Z,25.60
2022-10-29T12:45:04.885Z,23.25
2022-10-29T12:47:46.196Z,17.27
2022-10-29T12:50:23.724Z,24.20
2022-10-29T12:53:28.045Z,25.05
2022-10-29T12:55:58.023Z,24.88
2022-10-29T12:58:57.241Z,20.50
2022-10-29T13:01:38.343Z,19.63
2022-10-29T13:04:34.227Z,17.52
2022-10-29T13:07:23.833Z,23.00
2022-10-29T13:10:29.618Z,17.50
2022-10-29T13:13:07.142Z,19.95
2022-10-29T13:15:41.549Z,24.40
2022-10-29T13:18:13.077Z,21.38
2022-10-29T13:20:52.404Z,22.42
2022-10-29T13:23:23.879Z,20.73
2022-10-29T13:25:54.216Z,24.27
2022-10-29T13:28:25.510Z,22.98
2022-10-29T13:31:14.052Z,19.77
2022-10-29T13:33:42.889Z,24.25
2022-10-29T13:36:37.366Z,26.23
2022-10-29T13:39:18.572Z,16.55
2022-10-29T13:41:51.417Z,30.35
2022-10-29T13:44:23.013Z,20.88
2022-10-29T13:47:18.023Z,18.38
2022-10-29T13:49:49.142Z,23.30
2022-10-29T13:52:24.536Z,25.33
2022-10-29T13:55:06.349Z,22.33
2022-10-29T13:57:44.365Z,24.17
2022-10-29T14:00:12.583Z,19.88
2022-10-29T14:02:43.876Z,20.77
2022-10-29T14:05:16.117Z,29.33
2022-10-29T14:07:53.271Z,19.50
2022-10-29T14:10:42.906Z,19.63
2022-10-29T14:13:16.931Z,21.77
2022-10-29T14:16:04.997Z,24.50
2022-10-29T14:18:36.900Z,24.27
2022-10-29T14:21:12.809Z,19.77
2022-10-29T14:23:42.232Z,19.58
2022-10-29T14:26:17.530Z,26.83
2022-10-29T14:28:46.649Z,26.75
2022-10-29T14:31:24.053Z,23.05
2022-10-29T14:34:01.867Z,23.08
2022-10-29T14:36:38.608Z,20.77
2022-10-29T14:39:13.700Z,22.13
2022-10-29T14:41:47.514Z,21.88
2022-10-29T14:44:20.842Z,23.40
2022-10-29T14:47:13.450Z,22.67
2022-10-29T14:49:46.889Z,31.77
2022-10-29T14:52:38.129Z,28.73
2022-10-29T14:55:08.655Z,24.52
2022-10-29T15:00:24.235Z,21.05
2022-10-29T15:02:55.330Z,24.00
2022-10-29T15:05:30.833Z,29.95
2022-10-29T15:08:11.638Z,36.03
2022-10-29T15:10:53.780Z,21.73
2022-10-29T15:13:28.372Z,30.48
2022-10-29T15:16:18.396Z,24.70
2022-10-29T15:18:50.675Z,25.58
2022-10-29T15:21:29.466Z,21.48
2022-10-29T15:24:09.787Z,34.65
2022-10-29T15:26:54.533Z,25.38
2022-10-29T15:29:30.613Z,25.08
2022-10-29T15:32:02.227Z,30.42
2022-10-29T15:34:37.452Z,23.67
2022-10-29T15:37:33.800Z,29.95
2022-10-29T15:40:10.364Z,28.10
2022-10-29T15:42:39.799Z,27.45
2022-10-29T15:45:08.258Z,29.00
2022-10-29T15:47:48.469Z,21.23
2022-10-29T15:50:26.140Z,25.23
2022-10-29T15:52:59.341Z,28.83
2022-10-29T15:55:30.939Z,28.98
2022-10-29T15:58:14.825Z,28.00
2022-10-29T16:00:44.254Z,27.77
2022-10-29T16:03:40.461Z,27.73
2022-10-29T16:06:11.507Z,25.85
2022-10-29T16:08:39.832Z,22.55
2022-10-29T16:11:13.757Z,29.67
2022-10-29T16:13:42.378Z,24.67
2022-10-29T16:16:13.617Z,30.77
2022-10-29T16:18:42.673Z,33.50
2022-10-29T16:21:15.586Z,28.65
2022-10-29T16:23:44.195Z,23.73
2022-10-29T16:26:22.729Z,29.58
2022-10-29T16:28:54.509Z,29.08
2022-10-29T16:31:29.813Z,21.65
2022-10-29T16:34:01.241Z,26.88
2022-10-29T16:36:29.914Z,24.58
2022-10-29T16:38:58.310Z,25.58
2022-10-29T16:41:26.820Z,28.08
2022-10-29T16:43:55.362Z,27.02
2022-10-29T16:46:24.231Z,34.28
2022-10-29T16:48:52.546Z,27.98
2022-10-29T16:51:20.865Z,35.28
2022-10-29T16:53:49.280Z,28.95
2022-10-29T16:56:17.756Z,28.13
2022-10-29T16:58:46.147Z,29.40
2022-10-29T17:01:15.117Z,32.55
2022-10-29T17:03:43.809Z,24.33
2022-10-29T17:06:12.413Z,30.25
2022-10-29T17:08:41.045Z,24.90
2022-10-29T17:11:10.335Z,25.45
2022-10-29T17:13:39.209Z,28.85
2022-10-29T17:16:10.000Z,24.23
2022-10-29T17:18:41.134Z,23.33
2022-10-29T17:21:09.508Z,24.83
2022-10-29T17:23:37.897Z,24.08
2022-10-29T17:26:06.269Z,25.92
2022-10-29T17:28:38.864Z,24.25
2022-10-29T17:31:09.483Z,30.27
2022-10-29T17:36:11.217Z,24.75
2022-10-29T17:38:39.678Z,24.10
2022-10-29T17:41:08.370Z,22.27
2022-10-29T17:43:36.689Z,30.85
2022-10-29T17:46:06.115Z,20.73
2022-10-29T17:48:34.633Z,22.67
2022-10-29T17:51:03.740Z,24.35
2022-10-29T17:53:32.345Z,32.35
2022-10-29T17:56:01.708Z,23.65
2022-10-29T17:58:31.357Z,22.17
2022-10-29T18:01:05.100Z,24.27
2022-10-29T18:03:33.866Z,21.88
2022-10-29T18:06:05.393Z,26.40
2022-10-29T18:08:36.520Z,25.17
2022-10-29T18:11:21.531Z,24.67
2022-10-29T18:13:51.562Z,20.58
2022-10-29T18:16:22.742Z,24.40
2022-10-29T18:19:01.915Z,31.73
2022-10-29T18:21:31.666Z,24.88
2022-10-29T18:24:00.764Z,24.27
2022-10-29T18:26:34.287Z,24.45
2022-10-29T18:29:08.418Z,24.20
2022-10-29T18:31:42.539Z,25.88
2022-10-29T18:34:11.780Z,25.08
2022-10-29T18:36:40.708Z,32.85
2022-10-29T18:39:09.248Z,20.27
2022-10-29T18:41:37.813Z,26.05
2022-10-29T18:44:07.299Z,21.73
2022-10-29T18:46:35.753Z,20.02
2022-10-29T18:49:04.559Z,20.00
2022-10-29T18:51:33.151Z,26.77
2022-10-29T18:54:16.204Z,22.42
2022-10-29T18:56:44.620Z,23.02
2022-10-29T18:59:12.983Z,24.70
2022-10-29T19:01:42.052Z,26.55
2022-10-29T19:04:16.573Z,26.02
2022-10-29T19:06:45.126Z,30.35
2022-10-29T19:09:14.332Z,24.95
2022-10-29T19:11:43.161Z,23.23
2022-10-29T19:14:16.672Z,21.80
2022-10-29T19:16:45.624Z,21.48
2022-10-29T19:19:17.036Z,21.88
2022-10-29T19:21:48.156Z,25.45
2022-10-29T19:24:18.140Z,27.65
2022-10-29T19:26:47.843Z,23.90
2022-10-29T19:29:16.548Z,21.10
2022-10-29T19:31:46.448Z,22.98
2022-10-29T19:34:14.997Z,20.33
2022-10-29T19:36:44.832Z,16.48
2022-10-29T19:39:16.283Z,23.67
2022-10-29T19:41:45.473Z,22.33
2022-10-29T19:44:24.833Z,20.88
2022-10-29T19:46:53.220Z,27.95
2022-10-29T19:49:22.494Z,19.98
2022-10-29T19:51:51.714Z,23.20
2022-10-29T19:54:20.154Z,16.75
2022-10-29T19:56:48.728Z,15.82
2022-10-29T19:59:17.299Z,20.90
2022-10-29T20:01:48.687Z,19.77
2022-10-29T20:04:17.179Z,18.02
2022-10-29T20:06:48.425Z,20.30
2022-10-29T20:09:16.830Z,22.42
2022-10-29T20:11:45.434Z,28.40
2022-10-29T20:14:14.851Z,16.07
2022-10-29T20:16:43.740Z,17.13
2022-10-29T20:19:14.361Z,19.75
2022-10-29T20:21:43.115Z,26.08
2022-10-29T20:24:11.409Z,22.65
2022-10-29T20:26:40.478Z,21.98
2022-10-29T20:29:08.925Z,26.55
2022-10-29T20:31:41.071Z,21.98
2022-10-29T20:34:15.829Z,17.63
2022-10-29T20:36:46.394Z,19.92
2022-10-29T20:41:44.274Z,22.77
2022-10-29T20:44:13.883Z,30.15
2022-10-29T20:46:43.927Z,25.27
2022-10-29T20:49:13.558Z,26.77
2022-10-29T20:51:41.947Z,23.17
2022-10-29T20:54:10.477Z,21.98
2022-10-29T20:56:39.002Z,20.08
2022-10-29T20:59:07.500Z,30.38
2022-10-29T21:01:36.030Z,28.52
2022-10-29T21:04:04.817Z,22.80
2022-10-29T21:06:33.918Z,21.65
2022-10-29T21:09:13.056Z,26.25
2022-10-29T21:11:44.207Z,21.40
2022-10-29T21:14:12.571Z,26.98
2022-10-29T21:16:41.031Z,26.05
2022-10-29T21:19:10.468Z,23.83
2022-10-29T21:21:40.110Z,21.95
2022-10-29T21:24:08.640Z,28.13
2022-10-29T21:26:37.951Z,23.88
2022-10-29T21:29:06.301Z,22.83
2022-10-29T21:31:35.102Z,21.25
2022-10-29T21:34:03.530Z,28.92
2022-10-29T21:36:34.089Z,26.00
2022-10-29T21:39:02.581Z,26.77
2022-10-29T21:41:31.231Z,25.25
2022-10-29T21:43:59.679Z,27.63
2022-10-29T21:46:28.332Z,25.73
2022-10-29T21:48:56.814Z,20.35
2022-10-29T21:51:26.532Z,24.38
2022-10-29T21:53:55.114Z,21.08
2022-10-29T21:56:24.447Z,24.20
2022-10-29T21:58:55.004Z,25.17
2022-10-29T22:01:23.351Z,23.38
2022-10-29T22:03:52.688Z,21.38
2022-10-29T22:06:24.017Z,24.77
2022-10-29T22:08:55.195Z,27.20
2022-10-29T22:11:25.052Z,20.73
2022-10-29T22:13:54.777Z,24.17
2022-10-29T22:16:23.613Z,22.77
2022-10-29T22:18:53.150Z,22.15
2022-10-29T22:21:24.386Z,19.50
2022-10-29T22:23:55.983Z,20.70
2022-10-29T22:26:29.840Z,19.73
2022-10-29T22:28:58.278Z,20.80
2022-10-29T22:31:27.384Z,19.40
2022-10-29T22:33:55.851Z,18.42
2022-10-29T22:36:26.973Z,24.98
2022-10-29T22:38:57.293Z,27.63
2022-10-29T22:41:26.895Z,17.17
2022-10-29T22:43:58.877Z,25.15
2022-10-29T22:46:30.985Z,23.35
2022-10-29T22:49:05.203Z,23.35
2022-10-29T22:51:34.405Z,24.00
2022-10-29T22:54:04.603Z,20.35
2022-10-29T22:56:36.023Z,23.40
2022-10-29T22:59:06.000Z,25.25
2022-10-29T23:01:45.756Z,18.95
2022-10-29T23:04:16.157Z,25.75
2022-10-29T23:06:46.963Z,21.60
2022-10-29T23:09:15.678Z,22.35
2022-10-29T23:11:50.469Z,21.10
2022-10-29T23:14:18.823Z,29.27
2022-10-29T23:16:47.303Z,24.45
2022-10-29T23:19:16.525Z,22.13
2022-10-29T23:21:45.088Z,20.23
2022-10-29T23:24:13.443Z,19.90
2022-10-29T23:26:42.105Z,20.05
2022-10-29T23:29:11.780Z,22.48
2022-10-29T23:31:40.082Z,19.45
2022-10-29T23:34:11.617Z,21.83
2022-10-29T23:36:40.763Z,24.83
2022-10-29T23:39:09.219Z,21.90
2022-10-29T23:41:38.389Z,25.42
2022-10-29T23:44:06.769Z,20.00
2022-10-29T23:46:35.051Z,17.80
2022-10-29T23:49:03.408Z,27.40
2022-10-29T23:51:31.836Z,18.00
2022-10-29T23:54:01.378Z,29.20
2022-10-29T23:56:31.312Z,21.05
2022-10-29T23:59:01.725Z,25.58
